Time;durP1;ratioP1;P1;durP2;ratioP2;P2;SDS_P1;SDS_P2;PMS_P1;PMS_P2;Temp;Humidity;BMP_temperature;BMP_pressure;BME280_temperature;BME280_humidity;BME280_pressure;Samples;Min_cycle;Max_cycle;Signal;HPM_P1;HPM_P2
2022/04/20 00:01:52;;;;;;;0.65;0.60;;;;;;;17.49;53.88;96067.41;10371398;28;20030;-22
2022/04/20 00:06:52;;;;;;;0.77;0.67;;;;;;;17.51;53.17;96080.88;10338275;28;20032;-23
2022/04/20 00:11:52;;;;;;;0.53;0.43;;;;;;;17.43;52.59;96080.09;10396687;28;20284;-22
2022/04/20 00:16:53;;;;;;;0.60;0.60;;;;;;;17.39;52.64;96091.06;10331725;28;20393;-23
2022/04/20 00:21:53;;;;;;;0.37;0.27;;;;;;;17.36;52.24;96088.56;10330503;28;20281;-21
2022/04/20 00:26:53;;;;;;;0.40;0.40;;;;;;;17.34;52.52;96090.22;10329289;28;20776;-22
2022/04/20 00:31:54;;;;;;;2.13;1.03;;;;;;;17.30;52.24;96086.88;10330337;28;20085;-22
2022/04/20 00:36:55;;;;;;;0.50;0.40;;;;;;;17.30;52.35;96099.53;10329411;28;20412;-22
2022/04/20 00:41:56;;;;;;;0.52;0.40;;;;;;;17.29;52.58;96104.56;10330291;28;20061;-22
2022/04/20 00:46:58;;;;;;;1.02;0.40;;;;;;;17.29;52.57;96104.56;10329195;28;20041;-22
2022/04/20 00:52:01;;;;;;;0.50;0.50;;;;;;;17.30;52.48;96111.31;10327307;28;20034;-22
2022/04/20 00:57:04;;;;;;;0.98;0.50;;;;;;;17.30;52.59;96118.91;10327604;28;20517;-22
2022/04/20 01:02:06;;;;;;;0.70;0.65;;;;;;;17.39;54.23;96106.25;10332513;28;20030;-22
2022/04/20 01:07:15;;;;;;;0.60;0.60;;;;;;;17.46;54.27;96106.22;10367741;28;20488;-21
2022/04/20 01:12:34;;;;;;;0.45;0.40;;;;;;;17.48;52.98;96109.56;10387833;28;20046;-22
2022/04/20 01:17:55;;;;;;;0.40;0.40;;;;;;;17.40;52.56;96105.41;10365381;28;20037;-23
2022/04/20 01:23:14;;;;;;;0.20;0.20;;;;;;;17.35;52.63;96102.03;10328213;28;20034;-22
2022/04/20 01:28:32;;;;;;;0.35;0.32;;;;;;;17.33;52.64;96091.91;10326679;28;20030;-22
2022/04/20 01:33:47;;;;;;;0.50;0.50;;;;;;;17.33;52.59;96096.16;10326689;28;20030;-23
2022/04/20 01:38:48;;;;;;;0.90;0.32;;;;;;;17.32;52.16;96089.41;10327771;28;20030;-22
2022/04/20 01:43:49;;;;;;;0.88;0.50;;;;;;;17.30;52.26;96075.91;10345997;28;20496;-23
2022/04/20 01:48:55;;;;;;;0.47;0.43;;;;;;;17.30;52.03;96075.91;10356840;28;20539;-22
2022/04/20 01:54:10;;;;;;;0.80;0.43;;;;;;;17.29;52.34;96064.97;10326058;28;20508;-22
2022/04/20 01:59:26;;;;;;;0.82;0.47;;;;;;;17.26;52.63;96056.53;10330079;28;20493;-22
2022/04/20 02:04:40;;;;;;;0.88;0.60;;;;;;;17.31;52.68;96057.38;10364187;28;20087;-22
2022/04/20 02:09:41;;;;;;;0.63;0.50;;;;;;;17.42;54.12;96048.03;10394774;28;20454;-23
2022/04/20 02:14:47;;;;;;;0.60;0.60;;;;;;;17.45;53.83;96061.53;10375980;28;20034;-22
2022/04/20 02:20:10;;;;;;;0.50;0.40;;;;;;;17.41;52.65;96059.03;10340828;28;20046;-22
2022/04/20 02:25:11;;;;;;;0.40;0.40;;;;;;;17.34;52.33;96053.09;10338133;28;20042;-22
2022/04/20 02:30:11;;;;;;;0.40;0.40;;;;;;;17.26;52.44;96043.91;10339948;28;20041;-22
2022/04/20 02:35:12;;;;;;;0.65;0.55;;;;;;;17.32;52.45;96057.34;10338809;28;20038;-22
2022/04/20 02:40:12;;;;;;;0.50;0.50;;;;;;;17.32;52.46;96056.50;10339716;28;20038;-23
2022/04/20 02:45:12;;;;;;;0.50;0.40;;;;;;;17.31;52.38;96057.38;10337505;28;20508;-22
2022/04/20 02:50:13;;;;;;;0.40;0.40;;;;;;;17.30;52.43;96050.59;10339449;28;20400;-22
2022/04/20 02:55:13;;;;;;;1.02;0.50;;;;;;;17.30;52.44;96037.94;10339479;28;20030;-22
2022/04/20 03:00:16;;;;;;;0.40;0.40;;;;;;;17.29;52.27;96041.34;10379957;28;20527;-23
2022/04/20 03:05:25;;;;;;;0.60;0.45;;;;;;;17.28;52.46;96043.03;10356858;28;20026;-22
2022/04/20 03:10:27;;;;;;;0.50;0.45;;;;;;;17.35;53.60;96044.69;10378444;28;20033;-22
2022/04/20 03:15:28;;;;;;;0.60;0.50;;;;;;;17.41;53.82;96039.59;10357968;28;20036;-23
2022/04/20 03:20:30;;;;;;;0.40;0.40;;;;;;;17.44;53.56;96043.81;10331354;28;20130;-22
2022/04/20 03:25:31;;;;;;;0.40;0.40;;;;;;;17.40;52.58;96047.22;10331128;28;20030;-22
2022/04/20 03:30:55;;;;;;;0.43;0.43;;;;;;;17.34;52.40;96050.56;10331431;28;20030;-23
2022/04/20 03:35:56;;;;;;;0.63;0.60;;;;;;;17.31;52.28;96050.59;10330943;28;20401;-22
2022/04/20 03:40:57;;;;;;;0.68;0.50;;;;;;;17.30;52.53;96050.59;10331325;28;20034;-22
2022/04/20 03:45:58;;;;;;;0.40;0.40;;;;;;;17.30;52.34;96053.13;10331679;28;20435;-23
2022/04/20 03:50:58;;;;;;;0.45;0.35;;;;;;;17.30;52.45;96055.66;10331589;28;20125;-22
2022/04/20 03:55:59;;;;;;;0.50;0.50;;;;;;;17.30;52.75;96045.53;10331642;28;20038;-22
2022/04/20 04:01:01;;;;;;;0.40;0.40;;;;;;;17.28;52.41;96043.03;10329787;28;20448;-22
2022/04/20 04:06:01;;;;;;;0.43;0.43;;;;;;;17.28;52.53;96043.03;10355390;28;20026;-23
2022/04/20 04:11:02;;;;;;;0.50;0.50;;;;;;;17.27;52.38;96045.56;10372437;28;20041;-22
2022/04/20 04:16:03;;;;;;;0.70;0.40;;;;;;;17.34;53.75;96044.69;10348762;28;20572;-23
2022/04/20 04:21:04;;;;;;;0.45;0.45;;;;;;;17.40;53.98;96047.22;10329712;28;20297;-22
2022/04/20 04:26:05;;;;;;;0.45;0.45;;;;;;;17.41;53.28;96044.66;10328792;28;20109;-22
2022/04/20 04:31:12;;;;;;;0.40;0.40;;;;;;;17.34;52.41;96042.97;10328941;28;20034;-22
2022/04/20 04:36:13;;;;;;;0.75;0.40;;;;;;;17.30;52.59;96045.53;10328904;28;20035;-23
2022/04/20 04:41:22;;;;;;;0.55;0.47;;;;;;;17.28;52.54;96047.25;10344756;28;20405;-21
2022/04/20 04:51:59;;;;;;;0.60;0.55;;;;;;;17.28;52.43;96052.31;10328607;28;20031;-22
2022/04/20 04:57:00;;;;;;;0.57;0.40;;;;;;;17.26;52.55;96057.38;10327964;28;20125;-22
2022/04/20 05:02:04;;;;;;;0.93;0.47;;;;;;;17.25;52.27;96045.56;10320293;28;20437;-23
2022/04/20 05:07:04;;;;;;;0.30;0.30;;;;;;;17.27;52.50;96058.22;10355054;28;20026;-22
2022/04/20 05:12:34;;;;;;;0.40;0.30;;;;;;;17.24;52.30;96060.78;10407678;28;20458;-22
2022/04/20 05:17:36;;;;;;;0.43;0.40;;;;;;;17.23;52.04;96066.69;10382914;28;20038;-22
2022/04/20 05:22:37;;;;;;;0.52;0.50;;;;;;;17.32;53.92;96064.09;10349242;28;20523;-22
2022/04/20 05:27:38;;;;;;;0.30;0.30;;;;;;;17.37;53.81;96063.25;10326834;28;20044;-22
2022/04/20 05:32:42;;;;;;;0.43;0.40;;;;;;;17.36;53.23;96061.59;10355429;28;20044;-22
2022/04/20 05:43:21;;;;;;;0.32;0.30;;;;;;;17.29;52.34;96064.09;10325808;28;20034;-22
2022/04/20 05:48:23;;;;;;;0.40;0.30;;;;;;;17.27;52.51;96060.75;10353263;28;20524;-23
2022/04/20 05:53:24;;;;;;;0.52;0.40;;;;;;;17.24;52.38;96066.66;10342150;28;20162;-22
2022/04/20 05:58:25;;;;;;;0.40;0.35;;;;;;;17.25;52.17;96062.47;10326060;28;20034;-22
2022/04/20 06:03:27;;;;;;;0.30;0.30;;;;;;;17.24;52.95;96068.38;10341489;28;20025;-22
2022/04/20 06:08:33;;;;;;;0.40;0.40;;;;;;;17.23;52.78;96066.69;10350959;28;20026;-23
2022/04/20 06:13:45;;;;;;;0.30;0.30;;;;;;;17.23;52.58;96066.69;10406465;28;20037;-22
2022/04/20 06:19:11;;;;;;;0.43;0.40;;;;;;;17.21;52.50;96055.72;10334287;28;20134;-22
2022/04/20 06:24:41;;;;;;;0.40;0.40;;;;;;;17.20;52.05;96054.91;10325421;28;20039;-22
2022/04/20 06:29:58;;;;;;;0.47;0.47;;;;;;;17.31;54.03;96057.38;10325345;28;20474;-23
2022/04/20 06:35:08;;;;;;;0.30;0.30;;;;;;;17.35;53.52;96043.84;10341866;28;20389;-23
2022/04/20 06:40:20;;;;;;;0.50;0.50;;;;;;;17.32;52.87;96051.47;10340937;28;20516;-23
2022/04/20 06:45:53;;;;;;;0.30;0.30;;;;;;;17.19;52.18;96032.13;10325890;28;20456;-23
2022/04/20 06:51:08;;;;;;;0.52;0.52;;;;;;;17.22;52.45;96040.53;10332201;28;20512;-22
2022/04/20 07:01:47;;;;;;;0.50;0.43;;;;;;;17.21;52.42;96045.59;10334836;28;20030;-22
2022/04/20 07:07:13;;;;;;;0.30;0.30;;;;;;;17.19;52.58;96032.13;10357987;28;20042;-22
2022/04/20 07:12:35;;;;;;;0.68;0.50;;;;;;;17.18;52.75;96030.44;10408341;28;20511;-22
2022/04/20 07:17:35;;;;;;;0.40;0.38;;;;;;;17.18;52.50;96030.44;10360405;28;20030;-22
2022/04/20 07:22:54;;;;;;;0.30;0.30;;;;;;;17.18;52.53;96020.34;10332875;28;20042;-22
2022/04/20 07:28:06;;;;;;;0.38;0.38;;;;;;;17.18;52.63;96015.28;10331660;28;20038;-22
2022/04/20 07:33:20;;;;;;;0.50;0.45;;;;;;;17.25;53.35;96021.97;10330758;28;20493;-23
2022/04/20 07:38:45;;;;;;;0.45;0.40;;;;;;;17.33;54.07;96015.19;10331884;28;20084;-23
2022/04/20 07:44:23;;;;;;;0.50;0.40;;;;;;;17.32;52.88;96009.28;10326282;28;20042;-23
2022/04/20 07:55:28;;;;;;;0.40;0.40;;;;;;;17.21;52.63;96020.31;10330150;28;20074;-22
2022/04/20 08:00:37;;;;;;;0.75;0.43;;;;;;;17.14;52.30;96016.16;10329412;28;20413;-21
2022/04/20 08:06:00;;;;;;;0.38;0.38;;;;;;;17.18;52.55;96020.34;10362701;28;20513;-23
2022/04/20 08:11:02;;;;;;;0.63;0.50;;;;;;;17.16;52.52;96012.75;10381120;28;20037;-23
2022/04/20 08:16:02;;;;;;;0.45;0.40;;;;;;;17.18;52.43;96020.34;10362653;28;20034;-23
2022/04/20 08:21:11;;;;;;;0.30;0.30;;;;;;;17.16;52.76;96015.28;10329313;28;20503;-24
2022/04/20 08:26:13;;;;;;;0.40;0.20;;;;;;;17.12;52.13;96010.25;10330148;28;20034;-23
2022/04/20 08:31:15;;;;;;;0.35;0.35;;;;;;;17.16;52.65;96009.41;10330182;28;20038;-22
2022/04/20 08:36:16;;;;;;;0.60;0.40;;;;;;;17.15;52.78;96011.06;10329421;28;20042;-22
2022/04/20 08:41:16;;;;;;;0.40;0.40;;;;;;;17.27;54.03;96010.16;10329580;28;20030;-23
2022/04/20 08:46:18;;;;;;;1.33;0.50;;;;;;;17.31;53.95;96001.72;10329033;28;20517;-22
2022/04/20 08:51:18;;;;;;;0.30;0.30;;;;;;;17.27;52.61;96000.88;10329485;28;20038;-22
2022/04/20 09:01:37;;;;;;;0.35;0.30;;;;;;;17.19;52.42;96001.78;10339225;28;20029;-22
2022/04/20 09:06:44;;;;;;;0.40;0.40;;;;;;;17.13;52.55;95995.06;10367683;28;20059;-22
2022/04/20 09:11:46;;;;;;;0.32;0.32;;;;;;;17.16;52.61;95996.75;10400335;28;20091;-22
2022/04/20 09:16:47;;;;;;;0.30;0.30;;;;;;;17.15;52.60;95990.00;10388785;28;20277;-23
2022/04/20 09:21:47;;;;;;;0.30;0.30;;;;;;;17.13;52.54;95992.53;10357592;28;20034;-22
2022/04/20 09:26:56;;;;;;;0.30;0.23;;;;;;;17.14;52.34;95983.28;10328497;28;20104;-21
2022/04/20 09:31:56;;;;;;;0.20;0.20;;;;;;;17.15;52.71;95990.00;10368860;28;20081;-22
2022/04/20 09:36:57;;;;;;;0.30;0.30;;;;;;;17.14;52.54;95988.34;10362161;28;20120;-22
2022/04/20 09:42:02;;;;;;;0.20;0.20;;;;;;;17.10;52.38;95967.28;10368804;28;20079;-22
2022/04/20 09:52:44;;;;;;;0.35;0.35;;;;;;;17.30;53.91;95973.03;10281936;28;20046;-22
2022/04/20 09:57:44;;;;;;;0.45;0.40;;;;;;;17.25;52.49;95971.38;10317190;28;20081;-22
2022/04/20 10:02:45;;;;;;;0.27;0.27;;;;;;;17.21;52.68;95969.72;10337033;28;20099;-22
2022/04/20 10:07:45;;;;;;;0.32;0.32;;;;;;;17.17;52.69;95963.84;10366426;28;20288;-22
2022/04/20 10:12:51;;;;;;;0.28;0.28;;;;;;;17.16;52.69;95966.41;10407091;28;20041;-22
2022/04/20 10:17:54;;;;;;;0.52;0.40;;;;;;;17.16;52.73;95962.16;10366159;28;20518;-22
2022/04/20 10:23:00;;;;;;;0.30;0.30;;;;;;;17.15;52.52;95959.66;10332090;28;20042;-22
2022/04/20 10:28:11;;;;;;;0.30;0.30;;;;;;;17.13;52.25;95957.13;10334850;28;20095;-22
2022/04/20 10:33:19;;;;;;;0.40;0.30;;;;;;;17.13;52.71;95951.22;10334328;28;20034;-22
2022/04/20 10:38:20;;;;;;;0.25;0.25;;;;;;;17.13;52.63;95944.50;10333101;28;20030;-22
2022/04/20 10:43:30;;;;;;;0.35;0.35;;;;;;;17.04;52.66;95929.38;10348886;28;20034;-24
2022/04/20 10:49:15;;;;;;;0.40;0.40;;;;;;;17.06;52.97;95925.16;10334364;28;20496;-22
2022/04/20 10:54:24;;;;;;;0.30;0.30;;;;;;;17.25;53.98;95936.78;10334164;28;20394;-22
2022/04/20 10:59:30;;;;;;;0.40;0.30;;;;;;;17.30;53.93;95934.22;10332414;28;20037;-21
2022/04/20 11:04:39;;;;;;;0.30;0.30;;;;;;;17.20;52.71;95918.31;10356125;28;20056;-22
2022/04/20 11:09:42;;;;;;;0.30;0.30;;;;;;;17.20;52.51;95927.56;10386971;28;20039;-22
2022/04/20 11:20:01;;;;;;;0.70;0.40;;;;;;;17.15;52.70;95909.91;10373138;28;20042;-22
2022/04/20 11:25:06;;;;;;;0.45;0.45;;;;;;;17.15;52.83;95909.09;10333809;28;20034;-22
2022/04/20 11:30:07;;;;;;;0.47;0.32;;;;;;;17.13;52.81;95903.19;10333035;28;20030;-22
2022/04/20 11:35:11;;;;;;;0.32;0.30;;;;;;;17.13;52.68;95893.06;10331688;28;20042;-22
2022/04/20 11:40:13;;;;;;;0.40;0.40;;;;;;;17.13;52.87;95893.06;10369481;28;20412;-22
2022/04/20 11:45:32;;;;;;;0.40;0.30;;;;;;;17.12;52.60;95887.19;10359844;28;20398;-22
2022/04/20 11:50:34;;;;;;;0.20;0.20;;;;;;;17.11;52.82;95882.97;10331475;28;20037;-22
2022/04/20 11:55:45;;;;;;;0.38;0.38;;;;;;;17.17;53.57;95877.03;10372080;28;20041;-23
2022/04/20 12:00:45;;;;;;;0.50;0.45;;;;;;;17.18;53.81;95874.50;10364770;28;20056;-22
2022/04/20 12:06:04;;;;;;;0.50;0.50;;;;;;;17.32;53.88;95884.50;10363626;28;20515;-22
2022/04/20 12:11:08;;;;;;;0.40;0.30;;;;;;;17.25;52.87;95886.22;10383245;28;20060;-22
2022/04/20 12:16:14;;;;;;;0.20;0.20;;;;;;;17.20;52.44;95884.56;10361501;28;20042;-24
2022/04/20 12:21:40;;;;;;;0.40;0.37;;;;;;;17.17;52.68;95889.66;10336118;28;20030;-23
2022/04/20 12:26:42;;;;;;;0.30;0.20;;;;;;;17.15;52.63;95881.25;10371406;28;20163;-22
2022/04/20 12:31:44;;;;;;;0.30;0.30;;;;;;;17.15;52.85;95878.72;10349307;28;20030;-23
2022/04/20 12:36:58;;;;;;;0.63;0.63;;;;;;;17.13;52.87;95876.22;10339562;28;20041;-22
2022/04/20 12:42:04;;;;;;;0.30;0.30;;;;;;;17.13;52.80;95863.56;10370146;28;20096;-22
2022/04/20 12:47:10;;;;;;;0.35;0.32;;;;;;;17.04;52.71;95850.16;10345409;28;20041;-22
2022/04/20 12:52:14;;;;;;;0.35;0.32;;;;;;;17.11;52.72;95855.16;10328745;28;20278;-23
2022/04/20 13:02:33;;;;;;;0.20;0.20;;;;;;;17.18;54.18;95854.25;10337042;28;20124;-22
2022/04/20 13:07:34;;;;;;;1.02;0.50;;;;;;;17.27;54.12;95858.38;10351431;28;20188;-23
2022/04/20 13:12:47;;;;;;;0.20;0.20;;;;;;;17.31;53.92;95845.69;10404546;28;20100;-22
2022/04/20 13:17:48;;;;;;;0.25;0.25;;;;;;;17.25;53.32;95855.03;10348939;28;20513;-22
2022/04/20 13:22:48;;;;;;;0.47;0.38;;;;;;;17.18;53.10;95851.72;10327498;28;20497;-22
2022/04/20 13:27:54;;;;;;;0.20;0.20;;;;;;;17.13;52.75;95842.47;10327836;28;20041;-22
2022/04/20 13:32:56;;;;;;;0.20;0.20;;;;;;;17.15;52.78;95848.38;10327987;28;20066;-22
2022/04/20 13:37:56;;;;;;;0.45;0.40;;;;;;;17.13;52.78;95839.94;10347827;28;20153;-21
2022/04/20 13:42:57;;;;;;;0.40;0.40;;;;;;;17.13;53.03;95840.81;10367799;28;20493;-22
2022/04/20 13:47:57;;;;;;;0.30;0.30;;;;;;;17.13;52.71;95839.94;10334119;28;20091;-22
2022/04/20 13:52:59;;;;;;;1.50;0.50;;;;;;;17.13;52.83;95837.41;10327122;28;20039;-22
2022/04/20 13:57:59;;;;;;;0.25;0.25;;;;;;;17.11;52.78;95837.47;10327122;28;20038;-23
2022/04/20 14:03:00;;;;;;;0.30;0.30;;;;;;;17.13;52.62;95839.94;10339459;28;20041;-22
2022/04/20 14:08:00;;;;;;;0.63;0.43;;;;;;;17.15;53.28;95838.28;10367559;28;20026;-21
2022/04/20 14:13:01;;;;;;;0.40;0.30;;;;;;;17.27;54.19;95836.47;10408653;28;20272;-22
2022/04/20 14:18:01;;;;;;;0.32;0.32;;;;;;;17.30;54.03;95823.78;10347293;28;20038;-22
2022/04/20 14:23:01;;;;;;;0.53;0.40;;;;;;;17.26;53.36;95816.25;10346618;28;20455;-22
2022/04/20 14:33:22;;;;;;;0.50;0.40;;;;;;;17.16;53.11;95833.19;10339368;28;20333;-22
2022/04/20 14:38:22;;;;;;;0.20;0.20;;;;;;;17.15;53.02;95828.97;10326025;28;20038;-22
2022/04/20 14:43:22;;;;;;;0.50;0.40;;;;;;;17.15;53.00;95833.22;10326277;28;20030;-22
2022/04/20 14:48:23;;;;;;;0.47;0.30;;;;;;;17.12;52.87;95823.97;10326456;28;20035;-21
2022/04/20 14:53:23;;;;;;;0.30;0.30;;;;;;;17.12;53.05;95836.59;10349207;28;20303;-22
2022/04/20 14:58:23;;;;;;;0.30;0.30;;;;;;;17.12;53.18;95833.22;10367188;28;20408;-22
2022/04/20 15:03:24;;;;;;;0.40;0.40;;;;;;;17.12;53.07;95844.19;10343167;28;20498;-22
2022/04/20 15:08:24;;;;;;;0.40;0.33;;;;;;;17.12;53.12;95844.19;10353436;28;20030;-22
2022/04/20 15:13:25;;;;;;;0.37;0.30;;;;;;;17.12;53.05;95845.88;10414378;28;20033;-22
2022/04/20 15:18:26;;;;;;;0.43;0.43;;;;;;;17.25;54.59;95840.69;10340337;28;20508;-22
2022/04/20 15:23:27;;;;;;;0.67;0.40;;;;;;;17.31;54.29;95844.88;10333021;28;20112;-22
2022/04/20 15:28:27;;;;;;;0.20;0.20;;;;;;;17.29;53.67;95846.56;10332772;28;20064;-23
2022/04/20 15:33:28;;;;;;;0.20;0.20;;;;;;;17.21;53.51;95838.19;10331408;28;20049;-22
2022/04/20 15:38:28;;;;;;;0.23;0.23;;;;;;;17.15;53.15;95838.28;10331292;28;20042;-22
2022/04/20 15:43:33;;;;;;;0.67;0.43;;;;;;;17.15;53.23;95843.31;10332310;28;20081;-22
2022/04/20 15:48:35;;;;;;;0.22;0.22;;;;;;;17.14;53.14;95832.34;10332309;28;20390;-22
2022/04/20 15:53:35;;;;;;;0.52;0.30;;;;;;;17.13;53.34;95834.88;10356180;28;20087;-22
2022/04/20 16:03:54;;;;;;;0.35;0.35;;;;;;;17.11;53.45;95834.06;10350914;28;20284;-22
2022/04/20 16:08:55;;;;;;;0.30;0.30;;;;;;;17.11;53.22;95836.59;10360156;28;20396;-21
2022/04/20 16:13:56;;;;;;;0.30;0.20;;;;;;;17.11;53.19;95839.13;10409989;28;20037;-22
2022/04/20 16:18:56;;;;;;;0.50;0.23;;;;;;;17.10;53.24;95845.03;10330511;28;20100;-22
2022/04/20 16:23:57;;;;;;;0.27;0.20;;;;;;;17.25;54.83;95840.69;10358274;28;20037;-22
2022/04/20 16:28:57;;;;;;;0.20;0.20;;;;;;;17.32;55.27;95831.38;10371062;28;20472;-22
2022/04/20 16:33:58;;;;;;;0.20;0.20;;;;;;;17.30;53.59;95838.97;10339084;28;20045;-22
2022/04/20 16:38:58;;;;;;;0.30;0.30;;;;;;;17.21;53.59;95843.25;10330249;28;20034;-21
2022/04/20 16:43:59;;;;;;;0.43;0.40;;;;;;;17.18;53.26;95838.22;10329507;28;20293;-22
2022/04/20 16:48:59;;;;;;;0.30;0.30;;;;;;;17.15;53.40;95845.84;10359019;28;20117;-22
2022/04/20 16:54:00;;;;;;;0.20;0.20;;;;;;;17.13;53.36;95842.47;10341096;28;20026;-23
2022/04/20 16:59:00;;;;;;;0.27;0.20;;;;;;;17.11;53.39;95852.63;10328744;28;20093;-23
2022/04/20 17:04:01;;;;;;;0.30;0.30;;;;;;;17.10;53.15;95850.09;10348987;28;20041;-22
2022/04/20 17:09:03;;;;;;;0.30;0.30;;;;;;;17.10;53.26;95852.63;10358540;28;20040;-22
2022/04/20 17:14:04;;;;;;;0.20;0.20;;;;;;;17.09;53.30;95854.31;10409357;28;20073;-23
2022/04/20 17:19:04;;;;;;;0.20;0.20;;;;;;;17.09;53.31;95861.06;10334427;28;20080;-21
2022/04/20 17:29:24;;;;;;;0.45;0.35;;;;;;;17.19;55.44;95860.13;10327672;28;20031;-22
2022/04/20 17:34:25;;;;;;;0.40;0.33;;;;;;;17.30;55.52;95873.53;10327723;28;20038;-22
2022/04/20 17:39:26;;;;;;;0.28;0.28;;;;;;;17.33;54.28;95876.03;10327946;28;20308;-22
2022/04/20 17:44:27;;;;;;;0.30;0.30;;;;;;;17.22;53.53;95892.97;10327564;28;20515;-22
2022/04/20 17:49:27;;;;;;;0.45;0.30;;;;;;;17.15;53.53;95891.38;10327532;28;20113;-22
2022/04/20 17:54:28;;;;;;;0.20;0.20;;;;;;;17.10;52.98;95899.00;10358949;28;20038;-22
2022/04/20 17:59:28;;;;;;;0.30;0.30;;;;;;;17.10;53.37;95905.75;10367868;28;20300;-23
2022/04/20 18:04:28;;;;;;;0.30;0.30;;;;;;;17.09;53.16;95920.06;10354669;28;20065;-22
2022/04/20 18:09:29;;;;;;;0.30;0.30;;;;;;;17.08;52.92;95913.31;10379523;28;20284;-22
2022/04/20 18:14:29;;;;;;;0.30;0.30;;;;;;;17.08;53.50;95925.16;10402607;28;20109;-22
2022/04/20 18:19:31;;;;;;;0.37;0.30;;;;;;;17.06;53.30;95936.97;10367695;28;20695;-23
2022/04/20 18:24:31;;;;;;;0.30;0.30;;;;;;;17.07;53.09;95936.13;10334329;28;20347;-29
2022/04/20 18:29:32;;;;;;;0.20;0.20;;;;;;;17.07;53.28;95941.19;10327003;28;20030;-22
2022/04/20 18:34:35;;;;;;;0.30;0.10;;;;;;;17.09;53.93;95942.81;10327129;28;20038;-23
2022/04/20 18:39:36;;;;;;;0.30;0.30;;;;;;;17.25;55.79;95941.03;10326623;28;20038;-22
2022/04/20 18:44:36;;;;;;;0.30;0.30;;;;;;;17.30;55.84;95954.47;10332740;28;20038;-21
2022/04/20 18:49:37;;;;;;;0.20;0.20;;;;;;;17.22;53.52;95967.19;10334771;28;20030;-22
2022/04/20 18:59:56;;;;;;;0.80;0.38;;;;;;;17.12;53.35;95974.84;10368760;28;20026;-23
2022/04/20 19:04:56;;;;;;;0.27;0.27;;;;;;;17.10;53.46;95981.59;10361610;28;20504;-22
2022/04/20 19:09:57;;;;;;;0.60;0.30;;;;;;;17.09;53.54;95985.00;10370735;28;20037;-22
2022/04/20 19:14:57;;;;;;;0.20;0.20;;;;;;;17.08;53.16;95988.38;10404086;28;20041;-23
2022/04/20 19:19:58;;;;;;;0.30;0.20;;;;;;;17.08;53.49;95999.31;10373824;28;20045;-22
2022/04/20 19:24:58;;;;;;;0.20;0.20;;;;;;;17.07;53.26;95991.75;10336967;28;20041;-22
2022/04/20 19:29:59;;;;;;;0.47;0.40;;;;;;;17.07;53.66;95991.75;10343181;28;20488;-22
2022/04/20 19:35:00;;;;;;;0.20;0.20;;;;;;;17.07;53.27;95996.81;10373101;28;20038;-22
2022/04/20 19:40:01;;;;;;;0.30;0.30;;;;;;;17.06;53.41;95990.91;10335863;28;20039;-22
2022/04/20 19:45:02;;;;;;;2.90;0.45;;;;;;;17.22;55.48;95987.41;10331974;28;20042;-22
2022/04/20 19:50:02;;;;;;;1.02;0.50;;;;;;;17.27;55.48;96000.03;10369121;28;20396;-22
2022/04/20 19:55:03;;;;;;;0.30;0.30;;;;;;;17.25;53.75;96005.09;10333795;28;20057;-22
2022/04/20 20:00:06;;;;;;;0.40;0.30;;;;;;;17.18;53.50;96016.13;10330825;28;20110;-23
2022/04/20 20:05:07;;;;;;;0.22;0.22;;;;;;;17.11;53.46;96013.63;10359182;28;20045;-23
2022/04/20 20:10:08;;;;;;;0.20;0.20;;;;;;;17.09;53.44;96016.16;10370450;28;20033;-22
2022/04/20 20:15:09;;;;;;;0.30;0.30;;;;;;;17.07;53.41;96017.03;10391200;28;20042;-23
2022/04/20 20:20:10;;;;;;;0.50;0.30;;;;;;;17.07;53.50;96012.81;10330936;28;20126;-23
2022/04/20 20:30:29;;;;;;;0.20;0.20;;;;;;;17.07;53.35;96027.16;10330738;28;20042;-22
2022/04/20 20:35:30;;;;;;;0.20;0.20;;;;;;;17.05;53.45;96013.66;10329919;28;20045;-21
2022/04/20 20:40:30;;;;;;;0.37;0.30;;;;;;;17.06;53.38;96025.47;10370482;28;20041;-22
2022/04/20 20:45:30;;;;;;;0.20;0.20;;;;;;;17.05;53.10;96018.72;10368637;28;20291;-23
2022/04/20 20:50:33;;;;;;;0.30;0.30;;;;;;;17.17;55.54;96018.66;10329744;28;20468;-22
2022/04/20 20:55:34;;;;;;;0.40;0.30;;;;;;;17.25;55.80;96016.91;10329389;28;20042;-22
2022/04/20 21:00:35;;;;;;;0.50;0.50;;;;;;;17.26;54.38;96019.41;10329185;28;20041;-23
2022/04/20 21:05:35;;;;;;;0.50;0.50;;;;;;;17.17;53.43;96013.59;10359485;28;20037;-22
2022/04/20 21:10:36;;;;;;;0.40;0.35;;;;;;;17.11;53.25;96008.56;10372466;28;20043;-22
2022/04/20 21:15:37;;;;;;;0.20;0.20;;;;;;;17.09;53.49;96005.22;10405294;28;20096;-22
2022/04/20 21:20:38;;;;;;;0.40;0.40;;;;;;;17.08;53.26;96008.59;10329311;28;20096;-23
2022/04/20 21:25:39;;;;;;;0.43;0.30;;;;;;;17.08;53.53;96001.84;10369118;28;20042;-22
2022/04/20 21:30:42;;;;;;;0.40;0.38;;;;;;;17.06;53.15;96006.06;10364583;28;20459;-22
2022/04/20 21:35:42;;;;;;;0.40;0.40;;;;;;;17.07;53.76;96006.94;10327919;28;20088;-23
2022/04/20 21:40:55;;;;;;;0.40;0.40;;;;;;;17.05;53.30;95998.47;10327988;28;20039;-23
2022/04/20 21:46:00;;;;;;;0.20;0.20;;;;;;;17.06;53.47;96001.00;10327920;28;20057;-23
2022/04/20 21:51:00;;;;;;;0.30;0.30;;;;;;;17.06;53.48;96002.72;10331384;28;20030;-22
2022/04/20 21:56:02;;;;;;;0.40;0.40;;;;;;;17.10;54.84;96002.69;10368138;28;20527;-22
2022/04/20 22:01:05;;;;;;;0.30;0.30;;;;;;;17.21;55.21;95995.00;10348166;28;20092;-23
2022/04/20 22:16:50;;;;;;;0.40;0.40;;;;;;;17.12;53.26;96000.13;10359353;28;20117;-22
2022/04/20 22:21:52;;;;;;;0.63;0.40;;;;;;;17.10;53.52;95996.78;10335370;28;20493;-22
2022/04/20 22:26:54;;;;;;;0.30;0.30;;;;;;;17.07;53.38;95986.69;10335563;28;20053;-22
2022/04/20 22:31:55;;;;;;;0.30;0.30;;;;;;;17.07;52.96;95971.53;10335251;28;20030;-22
2022/04/20 22:36:56;;;;;;;0.25;0.25;;;;;;;17.07;53.19;95986.69;10334929;28;20334;-22
2022/04/20 22:41:56;;;;;;;0.30;0.30;;;;;;;17.06;53.45;95974.91;10334835;28;20062;-22
2022/04/20 22:46:57;;;;;;;0.35;0.35;;;;;;;17.05;53.22;95973.19;10346552;28;20041;-22
2022/04/20 22:51:57;;;;;;;0.40;0.40;;;;;;;17.06;53.26;95975.72;10362588;28;20408;-22
2022/04/20 22:56:58;;;;;;;0.30;0.22;;;;;;;17.06;53.13;95968.13;10333686;28;20133;-22
2022/04/20 23:01:58;;;;;;;0.30;0.30;;;;;;;17.06;53.51;95967.31;10337873;28;20052;-22
2022/04/20 23:06:58;;;;;;;0.40;0.40;;;;;;;17.20;55.08;95963.84;10361573;28;20028;-22
2022/04/20 23:11:59;;;;;;;0.43;0.40;;;;;;;17.24;55.16;95969.72;10338322;28;20305;-23
2022/04/20 23:16:59;;;;;;;0.20;0.20;;;;;;;17.21;53.82;95974.78;10333366;28;20105;-22
2022/04/20 23:22:00;;;;;;;0.60;0.50;;;;;;;17.12;53.32;95967.25;10332753;28;20030;-22
2022/04/20 23:32:19;;;;;;;0.20;0.20;;;;;;;17.08;53.23;95958.03;10331884;28;20038;-21
2022/04/20 23:37:21;;;;;;;0.25;0.25;;;;;;;17.07;53.25;95956.34;10332139;28;20044;-21
2022/04/20 23:42:21;;;;;;;0.63;0.55;;;;;;;17.07;53.28;95946.22;10332556;28;20041;-22
2022/04/20 23:47:21;;;;;;;0.30;0.30;;;;;;;17.05;53.18;95953.81;10332103;28;20040;-22
2022/04/20 23:52:22;;;;;;;0.30;0.30;;;;;;;17.05;53.02;95942.84;10331514;28;20052;-22
2022/04/20 23:57:23;;;;;;;0.40;0.40;;;;;;;17.05;52.90;95932.72;10332135;28;20041;-23
